Terminal Aerodrome Forecast
Issued by NWS Wilmington, OH

Current Version | Previous Version | Text Only | Print | Product List | Glossary Off
Versions: 1 2 3 4 5 6 7 8 9 10 11 12 13 14 15 16 17 18 19 20 21 22

558
FTUS41 KILN 101956 AAB
TAFILN
TAF AMD
KILN 101956Z 1020/1118 25010KT P6SM SCT025 BKN080
     FM110400 13005KT P6SM VCSH OVC040
     FM111000 15008KT P6SM OVC040=

USA.gov is the U.S. government's official web portal to all federal, state and local government web resources and services.